Portada
METAR-TAF:

METAR-TAF

Aeroports :

Danbury Municipal Airport

Danbury, Connecticut, Estats Units d'Amèrica

latitud: 41-22-18N, longitud: 073-29-04W, altitud: 139 m

Observació

L'informe es va fer fa 32 minuts, a les 22:53 UTC
Vent 14 kt del Oest/Nord-Oest amb ràfegues de 20 kt
Temperatura 5°C
Humitat 48%
Pressió 1009 hPa
Visibilitat: 16.1 km
Cel clar

METAR: KDXR 222253Z 30014G20KT 10SM CLR 05/M05 A2979 RMK AO2 PK WND 30026/2212 SLP088 T00501050

Hora: 18:25 (23:25 UTC)


TAF: manca

Observacions i pronòstics meteorològics de més de 4000 aeroports (METAR i TAF).

Les estacions disponibles són els punts grocs i vermells al mapa.

Posi el ratolí al punt desitjat per veure el nom de l'estació.

Feu clic per veure les observacions i els pronòstics meteorològics.

Per canviar el mapa: feu clic els botons verds amb una creu de color negre per apropar; al botó verd amb un guió per allunyar la imatge; o en les fletxes verdes per a mapes adjacents.


METAR-TAF: